createdAt,value
2019-03-27T00:02:06.937Z,7.77
2019-03-27T00:04:38.144Z,9.50
2019-03-27T00:07:10.356Z,9.83
2019-03-27T00:09:41.488Z,7.37
2019-03-27T00:12:13.806Z,7.47
2019-03-27T00:14:44.916Z,8.17
2019-03-27T00:17:16.032Z,9.50
2019-03-27T00:19:47.302Z,9.97
2019-03-27T00:22:18.472Z,15.10
2019-03-27T00:24:49.686Z,9.13
2019-03-27T00:27:20.928Z,10.10
2019-03-27T00:29:52.018Z,10.27
2019-03-27T00:32:23.102Z,10.43
2019-03-27T00:34:54.234Z,7.43
2019-03-27T00:37:25.701Z,7.77
2019-03-27T00:39:56.876Z,8.00
2019-03-27T00:42:27.857Z,7.73
2019-03-27T00:44:59.207Z,6.60
2019-03-27T00:47:30.312Z,10.63
2019-03-27T00:50:02.515Z,10.37
2019-03-27T00:52:33.544Z,9.17
2019-03-27T00:55:04.956Z,7.33
2019-03-27T00:57:36.154Z,13.27
2019-03-27T01:00:11.513Z,10.17
2019-03-27T01:02:42.637Z,9.97
2019-03-27T01:05:14.159Z,11.60
2019-03-27T01:07:45.210Z,9.53
2019-03-27T01:10:16.479Z,8.93
2019-03-27T01:12:47.783Z,8.53
2019-03-27T01:15:19.067Z,8.03
2019-03-27T01:17:50.184Z,7.50
2019-03-27T01:20:21.343Z,14.00
2019-03-27T01:22:52.319Z,9.10
2019-03-27T01:25:23.494Z,10.07
2019-03-27T01:27:54.770Z,10.87
2019-03-27T01:30:25.778Z,8.47
2019-03-27T01:32:56.848Z,10.03
2019-03-27T01:35:28.049Z,12.97
2019-03-27T01:37:59.076Z,9.47
2019-03-27T01:40:30.120Z,9.77
2019-03-27T01:43:01.365Z,11.33
2019-03-27T01:45:32.622Z,11.23
2019-03-27T01:48:03.738Z,8.97
2019-03-27T01:50:34.779Z,9.13
2019-03-27T01:53:06.068Z,12.57
2019-03-27T01:55:37.374Z,11.27
2019-03-27T01:58:08.702Z,12.80
2019-03-27T02:00:39.880Z,11.00
2019-03-27T02:03:11.135Z,17.37
2019-03-27T02:05:42.226Z,12.43
2019-03-27T02:08:13.515Z,9.00
2019-03-27T02:10:44.939Z,12.27
2019-03-27T02:13:15.977Z,10.97
2019-03-27T02:15:47.026Z,14.50
2019-03-27T02:18:18.129Z,11.43
2019-03-27T02:20:49.258Z,9.27
2019-03-27T02:23:20.423Z,10.13
2019-03-27T02:25:51.503Z,14.13
2019-03-27T02:28:22.529Z,10.43
2019-03-27T02:30:53.819Z,11.57
2019-03-27T02:33:24.919Z,9.13
2019-03-27T02:38:48.947Z,8.70
2019-03-27T02:41:20.049Z,9.40
2019-03-27T02:43:51.224Z,12.70
2019-03-27T02:46:25.186Z,9.83
2019-03-27T02:48:54.937Z,9.73
2019-03-27T02:51:25.945Z,12.00
2019-03-27T02:53:58.139Z,9.73
2019-03-27T02:56:29.172Z,10.23
2019-03-27T02:59:00.143Z,11.40
2019-03-27T03:01:31.360Z,12.13
2019-03-27T03:04:02.501Z,11.57
2019-03-27T03:06:33.668Z,11.93
2019-03-27T03:09:05.615Z,11.60
2019-03-27T03:11:36.911Z,10.80
2019-03-27T03:14:08.651Z,9.73
2019-03-27T03:16:42.568Z,13.83
2019-03-27T03:19:12.467Z,14.10
2019-03-27T03:21:43.660Z,9.73
2019-03-27T03:24:14.776Z,12.40
2019-03-27T03:26:50.259Z,11.77
2019-03-27T03:29:18.642Z,13.07
2019-03-27T03:31:49.700Z,10.90
2019-03-27T03:34:20.881Z,10.93
2019-03-27T03:36:52.106Z,14.00
2019-03-27T03:39:23.076Z,10.17
2019-03-27T03:41:54.243Z,13.60
2019-03-27T03:44:25.774Z,11.23
2019-03-27T03:47:00.137Z,14.17
2019-03-27T03:49:30.026Z,13.07
2019-03-27T03:52:01.352Z,12.17
2019-03-27T03:54:33.037Z,11.23
2019-03-27T03:57:06.015Z,11.47
2019-03-27T03:59:38.164Z,13.00
2019-03-27T04:02:09.327Z,12.27
2019-03-27T04:04:41.817Z,14.87
2019-03-27T04:07:13.157Z,12.67
2019-03-27T04:09:44.243Z,13.67
2019-03-27T04:12:15.218Z,9.63
2019-03-27T04:14:46.484Z,11.63
2019-03-27T04:17:18.173Z,13.20
2019-03-27T04:19:49.498Z,15.10
2019-03-27T04:22:20.628Z,15.67
2019-03-27T04:24:51.853Z,13.23
2019-03-27T04:27:23.004Z,10.07
2019-03-27T04:29:54.078Z,13.73
2019-03-27T04:32:25.589Z,11.50
2019-03-27T04:34:56.706Z,10.30
2019-03-27T04:37:27.859Z,14.10
2019-03-27T04:39:59.337Z,17.17
2019-03-27T04:42:30.698Z,14.37
2019-03-27T04:45:02.074Z,14.90
2019-03-27T04:47:33.419Z,14.30
2019-03-27T04:50:04.847Z,10.07
2019-03-27T04:52:35.994Z,8.23
2019-03-27T04:55:08.104Z,12.60
2019-03-27T04:57:39.662Z,16.00
2019-03-27T05:00:12.345Z,15.87
2019-03-27T05:02:43.778Z,9.13
2019-03-27T05:05:15.146Z,9.97
2019-03-27T05:07:46.496Z,10.57
2019-03-27T05:10:17.810Z,12.07
2019-03-27T05:12:49.035Z,10.90
2019-03-27T05:15:21.221Z,11.13
2019-03-27T05:17:52.484Z,11.43
2019-03-27T05:20:23.491Z,12.30
2019-03-27T05:22:54.642Z,11.43
2019-03-27T05:25:25.881Z,14.03
2019-03-27T05:27:57.419Z,11.50
2019-03-27T05:30:29.570Z,17.90
2019-03-27T05:33:01.167Z,16.33
2019-03-27T05:35:32.401Z,15.43
2019-03-27T05:38:03.536Z,18.20
2019-03-27T05:40:34.727Z,13.47
2019-03-27T05:43:06.395Z,14.97
2019-03-27T05:45:38.204Z,13.60
2019-03-27T05:48:10.076Z,12.60
2019-03-27T05:50:41.938Z,14.10
2019-03-27T05:53:13.116Z,15.13
2019-03-27T05:55:44.351Z,12.97
2019-03-27T05:58:15.316Z,13.90
2019-03-27T06:00:46.746Z,17.27
2019-03-27T06:03:17.830Z,13.63
2019-03-27T06:05:48.898Z,15.50
2019-03-27T06:08:20.150Z,13.33
2019-03-27T06:10:51.183Z,15.77
2019-03-27T06:13:22.232Z,12.57
2019-03-27T06:15:53.509Z,10.43
2019-03-27T06:18:24.723Z,15.43
2019-03-27T06:20:56.104Z,14.67
2019-03-27T06:23:27.277Z,17.70
2019-03-27T06:25:58.682Z,18.60
2019-03-27T06:28:29.911Z,16.33
2019-03-27T06:31:01.203Z,12.30
2019-03-27T06:33:32.730Z,19.10
2019-03-27T06:36:09.728Z,20.23
2019-03-27T06:38:40.847Z,16.83
2019-03-27T06:41:12.118Z,17.10
2019-03-27T06:43:43.174Z,18.80
2019-03-27T06:46:14.183Z,16.27
2019-03-27T06:48:45.335Z,15.87
2019-03-27T06:51:16.489Z,15.17
2019-03-27T06:53:47.747Z,16.30
2019-03-27T06:56:18.889Z,14.40
2019-03-27T06:58:54.925Z,13.67
2019-03-27T07:01:22.969Z,18.73
2019-03-27T07:03:54.093Z,18.40
2019-03-27T07:06:25.479Z,13.10
2019-03-27T07:08:56.860Z,18.67
2019-03-27T07:11:28.209Z,21.70
2019-03-27T07:13:59.341Z,12.87
2019-03-27T07:16:30.787Z,20.40
2019-03-27T07:19:01.810Z,16.73
2019-03-27T07:21:32.941Z,24.23
2019-03-27T07:24:04.281Z,19.30
2019-03-27T07:26:36.381Z,16.37
2019-03-27T07:29:07.363Z,11.40
2019-03-27T07:31:38.502Z,20.20
2019-03-27T07:34:09.505Z,13.93
2019-03-27T07:36:40.749Z,15.60
2019-03-27T07:39:11.820Z,19.63
2019-03-27T07:41:42.863Z,15.23
2019-03-27T07:44:13.951Z,14.60
2019-03-27T07:46:45.054Z,14.17
2019-03-27T07:49:16.083Z,13.40
2019-03-27T07:51:48.172Z,16.37
2019-03-27T07:54:19.590Z,16.53
2019-03-27T07:56:50.822Z,12.43
2019-03-27T07:59:21.925Z,12.03
2019-03-27T08:01:53.448Z,12.73
2019-03-27T08:04:24.496Z,14.87
2019-03-27T08:06:55.597Z,19.33
2019-03-27T08:09:27.664Z,14.60
2019-03-27T08:11:58.909Z,24.23
2019-03-27T08:14:29.893Z,7.77
2019-03-27T08:17:00.838Z,11.37
2019-03-27T08:19:31.814Z,36.10
2019-03-27T08:22:04.139Z,27.87
2019-03-27T08:24:35.205Z,9.20
2019-03-27T08:27:06.223Z,10.57
2019-03-27T08:29:37.272Z,14.63
2019-03-27T08:32:08.453Z,10.53
2019-03-27T08:34:39.495Z,7.30
2019-03-27T08:37:10.477Z,9.80
2019-03-27T08:39:41.505Z,10.27
2019-03-27T08:42:12.481Z,19.87
2019-03-27T08:44:43.545Z,17.07
2019-03-27T08:47:14.669Z,7.20
2019-03-27T08:49:45.805Z,15.30
2019-03-27T08:52:16.760Z,16.63
2019-03-27T08:54:47.797Z,4.33
2019-03-27T08:57:18.824Z,6.90
2019-03-27T08:59:49.948Z,6.23
2019-03-27T09:02:21.075Z,6.17
2019-03-27T09:04:52.032Z,6.83
2019-03-27T09:07:23.042Z,10.80
2019-03-27T09:09:54.173Z,9.80
2019-03-27T09:12:25.296Z,7.30
2019-03-27T09:14:56.240Z,9.60
2019-03-27T09:17:27.428Z,4.03
2019-03-27T09:19:58.526Z,9.87
2019-03-27T09:22:29.479Z,6.97
2019-03-27T09:25:00.539Z,5.87
2019-03-27T09:27:31.658Z,6.03
2019-03-27T09:30:02.625Z,6.07
2019-03-27T09:32:33.554Z,5.33
2019-03-27T09:35:04.756Z,6.90
2019-03-27T09:37:35.830Z,7.47
2019-03-27T09:40:07.185Z,4.87
2019-03-27T09:42:38.351Z,13.97
2019-03-27T09:45:10.789Z,8.30
2019-03-27T09:47:41.744Z,3.60
2019-03-27T09:50:12.945Z,5.00
2019-03-27T09:52:43.945Z,7.07
2019-03-27T09:55:15.142Z,8.03
2019-03-27T09:57:46.220Z,12.00
2019-03-27T10:00:20.947Z,4.23
2019-03-27T10:02:52.245Z,6.33
2019-03-27T10:05:23.279Z,9.17
2019-03-27T10:07:54.250Z,5.67
2019-03-27T10:10:25.217Z,2.87
2019-03-27T10:12:56.289Z,10.87
2019-03-27T10:15:27.225Z,3.33
2019-03-27T10:17:58.271Z,9.20
2019-03-27T10:20:29.235Z,8.40
2019-03-27T10:23:00.420Z,12.23
2019-03-27T10:25:31.391Z,5.17
2019-03-27T10:28:02.534Z,10.27
2019-03-27T10:30:33.650Z,3.33
2019-03-27T10:33:04.898Z,9.73
2019-03-27T10:35:36.082Z,2.10
2019-03-27T10:38:07.198Z,14.67
2019-03-27T10:40:38.282Z,17.70
2019-03-27T10:43:09.399Z,13.97
2019-03-27T10:45:40.547Z,13.57
2019-03-27T10:48:11.610Z,7.67
2019-03-27T10:50:42.580Z,15.60
2019-03-27T10:53:14.752Z,6.60
2019-03-27T10:55:46.692Z,13.13
2019-03-27T10:58:17.659Z,6.03
2019-03-27T11:00:48.650Z,10.43
2019-03-27T11:03:19.638Z,3.67
2019-03-27T11:05:50.600Z,6.73
2019-03-27T11:08:22.642Z,6.27
2019-03-27T11:10:53.900Z,6.80
2019-03-27T11:13:24.856Z,4.90
2019-03-27T11:15:55.998Z,5.23
2019-03-27T11:18:26.989Z,5.07
2019-03-27T11:20:58.155Z,6.43
2019-03-27T11:23:29.071Z,8.83
2019-03-27T11:26:00.153Z,8.43
2019-03-27T11:28:31.202Z,10.67
2019-03-27T11:31:02.240Z,4.00
2019-03-27T11:33:33.404Z,5.83
2019-03-27T11:36:04.473Z,6.60
2019-03-27T11:38:37.530Z,1.87
2019-03-27T11:41:08.090Z,4.80
2019-03-27T11:43:39.035Z,3.43
2019-03-27T11:46:10.071Z,4.43
2019-03-27T11:48:41.033Z,3.93
2019-03-27T11:51:12.035Z,13.63
2019-03-27T11:53:43.059Z,5.33
2019-03-27T11:56:14.167Z,6.37
2019-03-27T11:58:45.151Z,4.77
2019-03-27T12:01:16.283Z,4.70
2019-03-27T12:03:47.364Z,3.37
2019-03-27T12:06:18.367Z,3.07
2019-03-27T12:08:50.808Z,2.93
2019-03-27T12:11:22.072Z,2.57
2019-03-27T12:13:53.200Z,5.57
2019-03-27T12:16:24.244Z,4.33
2019-03-27T12:18:55.375Z,4.07
2019-03-27T12:21:26.515Z,3.80
2019-03-27T12:23:57.544Z,1.97
2019-03-27T12:26:28.756Z,2.00
2019-03-27T12:28:59.821Z,3.57
2019-03-27T12:31:30.770Z,2.23
2019-03-27T12:34:01.754Z,3.33
2019-03-27T12:36:32.722Z,2.67
2019-03-27T12:39:05.513Z,4.33
2019-03-27T12:41:36.664Z,5.13
2019-03-27T12:44:07.632Z,2.47
2019-03-27T12:46:38.839Z,3.23
2019-03-27T12:49:09.896Z,4.57
2019-03-27T12:51:40.963Z,3.53
2019-03-27T12:54:11.960Z,2.37
2019-03-27T12:56:43.146Z,3.67
2019-03-27T12:59:14.327Z,4.63
2019-03-27T13:01:45.485Z,3.43
2019-03-27T13:04:16.449Z,3.10
2019-03-27T13:06:47.547Z,2.47
2019-03-27T13:09:18.652Z,4.33
2019-03-27T13:11:50.640Z,2.37
2019-03-27T13:14:21.693Z,8.20
2019-03-27T13:16:52.653Z,2.93
2019-03-27T13:19:23.607Z,6.57
2019-03-27T13:21:54.819Z,3.73
2019-03-27T13:24:25.867Z,7.80
2019-03-27T13:26:56.988Z,4.17
2019-03-27T13:29:28.351Z,5.57
2019-03-27T13:31:59.337Z,5.13
2019-03-27T13:34:30.473Z,2.93
2019-03-27T13:37:01.501Z,4.93
2019-03-27T13:39:32.807Z,4.80
2019-03-27T13:42:03.829Z,2.50
2019-03-27T13:44:37.340Z,4.43
2019-03-27T13:47:07.511Z,11.33
2019-03-27T13:49:38.879Z,2.57
2019-03-27T13:52:09.892Z,4.80
2019-03-27T13:54:40.954Z,5.60
2019-03-27T13:57:11.872Z,10.33
2019-03-27T13:59:42.859Z,7.60
2019-03-27T14:02:13.907Z,4.03
2019-03-27T14:04:44.904Z,4.37
2019-03-27T14:07:15.994Z,4.80
2019-03-27T14:09:47.071Z,3.13
2019-03-27T14:12:18.050Z,4.13
2019-03-27T14:14:50.610Z,10.40
2019-03-27T14:17:21.743Z,6.00
2019-03-27T14:19:53.048Z,7.80
2019-03-27T14:22:24.148Z,11.83
2019-03-27T14:24:55.413Z,13.77
2019-03-27T14:27:26.524Z,9.80
2019-03-27T14:29:57.578Z,7.40
2019-03-27T14:32:28.664Z,3.57
2019-03-27T14:34:59.683Z,3.23
2019-03-27T14:37:30.689Z,4.97
2019-03-27T14:40:01.792Z,4.90
2019-03-27T14:42:32.976Z,6.23
2019-03-27T14:45:06.061Z,5.67
2019-03-27T14:47:37.463Z,5.53
2019-03-27T14:50:10.250Z,14.73
2019-03-27T14:52:41.689Z,6.83
2019-03-27T14:55:12.829Z,8.80
2019-03-27T14:57:43.931Z,9.03
2019-03-27T15:00:15.797Z,9.48
2019-03-27T15:02:46.891Z,5.83
2019-03-27T15:05:18.083Z,11.27
2019-03-27T15:07:49.361Z,10.17
2019-03-27T15:10:20.531Z,6.77
2019-03-27T15:12:51.695Z,5.47
2019-03-27T15:15:24.326Z,4.63
2019-03-27T15:17:55.754Z,7.43
2019-03-27T15:20:26.692Z,4.93
2019-03-27T15:22:58.060Z,5.73
2019-03-27T15:25:29.296Z,7.37
2019-03-27T15:28:00.726Z,5.43
2019-03-27T15:30:32.394Z,5.87
2019-03-27T15:33:03.365Z,9.10
2019-03-27T15:35:34.382Z,9.77
2019-03-27T15:38:05.500Z,9.20
2019-03-27T15:40:42.790Z,7.33
2019-03-27T15:43:15.626Z,7.33
2019-03-27T15:45:46.912Z,6.13
2019-03-27T15:48:19.548Z,6.73
2019-03-27T15:50:57.173Z,6.37
2019-03-27T15:53:23.546Z,5.50
2019-03-27T15:55:54.735Z,6.47
2019-03-27T15:58:25.741Z,7.17
2019-03-27T16:00:56.819Z,9.50
2019-03-27T16:03:27.953Z,16.47
2019-03-27T16:05:58.963Z,7.63
2019-03-27T16:08:29.951Z,8.93
2019-03-27T16:11:00.949Z,6.50
2019-03-27T16:13:32.023Z,6.20
2019-03-27T16:16:03.143Z,6.83
2019-03-27T16:18:34.397Z,6.70
2019-03-27T16:21:05.548Z,7.47
2019-03-27T16:23:36.651Z,9.27
2019-03-27T16:26:07.668Z,9.10
2019-03-27T16:28:38.886Z,8.98
2019-03-27T16:31:10.199Z,8.53
2019-03-27T16:33:41.259Z,9.30
2019-03-27T16:36:12.299Z,8.00
2019-03-27T16:38:43.443Z,10.30
2019-03-27T16:41:14.485Z,10.23
2019-03-27T16:43:45.530Z,6.57
2019-03-27T16:46:16.870Z,7.07
2019-03-27T16:48:48.002Z,10.88
2019-03-27T16:51:19.112Z,8.47
2019-03-27T16:53:50.284Z,10.63
2019-03-27T16:56:21.579Z,8.10
2019-03-27T16:58:52.844Z,10.83
2019-03-27T17:01:23.886Z,8.37
2019-03-27T17:03:54.900Z,10.13
2019-03-27T17:06:25.869Z,8.85
2019-03-27T17:08:57.017Z,5.40
2019-03-27T17:11:28.007Z,11.68
2019-03-27T17:13:59.089Z,8.50
2019-03-27T17:16:30.076Z,11.25
2019-03-27T17:19:01.251Z,12.87
2019-03-27T17:21:32.283Z,6.90
2019-03-27T17:24:03.382Z,9.07
2019-03-27T17:26:34.765Z,7.27
2019-03-27T17:29:06.022Z,7.83
2019-03-27T17:31:38.310Z,12.20
2019-03-27T17:34:09.590Z,7.40
2019-03-27T17:36:40.657Z,7.63
2019-03-27T17:39:11.683Z,9.07
2019-03-27T17:41:43.021Z,10.60
2019-03-27T17:44:14.249Z,11.97
2019-03-27T17:46:49.924Z,8.67
2019-03-27T17:49:19.501Z,12.33
2019-03-27T17:51:50.631Z,10.63
2019-03-27T17:54:22.096Z,9.17
2019-03-27T17:56:53.742Z,14.30
2019-03-27T17:59:25.068Z,10.40
2019-03-27T18:01:56.257Z,13.43
2019-03-27T18:04:27.620Z,10.50
2019-03-27T18:06:58.920Z,11.80
2019-03-27T18:09:30.291Z,13.20
2019-03-27T18:12:01.287Z,11.30
2019-03-27T18:14:32.660Z,12.57
2019-03-27T18:17:03.718Z,8.33
2019-03-27T18:19:34.842Z,11.73
2019-03-27T18:22:08.088Z,12.03
2019-03-27T18:24:39.818Z,12.87
2019-03-27T18:27:10.894Z,12.67
2019-03-27T18:29:42.426Z,15.33
2019-03-27T18:32:13.496Z,18.20
2019-03-27T18:34:44.575Z,15.13
2019-03-27T18:37:16.050Z,14.37
2019-03-27T18:39:47.312Z,13.73
2019-03-27T18:42:18.566Z,17.83
2019-03-27T18:44:49.602Z,21.35
2019-03-27T18:47:20.625Z,12.90
2019-03-27T18:49:51.940Z,18.40
2019-03-27T18:52:24.050Z,19.90
2019-03-27T18:54:55.218Z,11.67
2019-03-27T18:57:27.775Z,11.40
2019-03-27T19:00:00.440Z,11.47
2019-03-27T19:02:32.805Z,12.70
2019-03-27T19:05:09.480Z,12.57
2019-03-27T19:07:46.148Z,13.60
2019-03-27T19:10:43.681Z,12.17
2019-03-27T19:13:15.029Z,9.90
2019-03-27T19:15:46.523Z,11.23
2019-03-27T19:18:17.857Z,14.53
2019-03-27T19:20:49.269Z,9.97
2019-03-27T19:23:20.336Z,15.43
2019-03-27T19:25:51.720Z,10.17
2019-03-27T19:28:22.872Z,14.00
2019-03-27T19:30:54.238Z,14.03
2019-03-27T19:33:25.643Z,10.77
2019-03-27T19:35:57.029Z,14.60
2019-03-27T19:38:28.507Z,11.10
2019-03-27T19:40:59.544Z,15.17
2019-03-27T19:43:31.157Z,10.83
2019-03-27T19:46:02.302Z,14.07
2019-03-27T19:48:33.450Z,11.77
2019-03-27T19:51:04.500Z,16.20
2019-03-27T19:53:35.638Z,14.43
2019-03-27T19:56:06.840Z,17.13
2019-03-27T19:58:38.226Z,14.80
2019-03-27T20:01:09.642Z,14.73
2019-03-27T20:03:40.738Z,16.53
2019-03-27T20:06:11.859Z,17.20
2019-03-27T20:08:43.066Z,18.23
2019-03-27T20:11:14.108Z,21.43
2019-03-27T20:13:45.213Z,12.10
2019-03-27T20:16:16.606Z,14.77
2019-03-27T20:18:48.035Z,14.13
2019-03-27T20:21:19.025Z,12.60
2019-03-27T20:23:50.512Z,9.07
2019-03-27T20:26:21.912Z,9.60
2019-03-27T20:28:52.839Z,12.73
2019-03-27T20:31:24.170Z,10.53
2019-03-27T20:33:55.746Z,12.23
2019-03-27T20:36:27.170Z,9.83
2019-03-27T20:38:58.531Z,11.97
2019-03-27T20:41:29.590Z,9.63
2019-03-27T20:44:00.934Z,9.03
2019-03-27T20:46:32.148Z,12.83
2019-03-27T20:49:03.315Z,8.10
2019-03-27T20:51:38.815Z,15.20
2019-03-27T20:54:10.013Z,10.93
2019-03-27T20:56:41.539Z,12.13
2019-03-27T20:59:12.677Z,10.73
2019-03-27T21:01:44.120Z,11.50
2019-03-27T21:04:15.176Z,14.70
2019-03-27T21:06:46.445Z,15.50
2019-03-27T21:09:18.500Z,12.10
2019-03-27T21:11:49.649Z,10.67
2019-03-27T21:14:20.636Z,12.60
2019-03-27T21:16:51.752Z,13.27
2019-03-27T21:19:23.164Z,12.00
2019-03-27T21:22:03.038Z,11.80
2019-03-27T21:24:34.114Z,10.73
2019-03-27T21:27:05.372Z,10.93
2019-03-27T21:29:36.544Z,12.60
2019-03-27T21:32:07.572Z,10.30
2019-03-27T21:34:38.604Z,13.00
2019-03-27T21:37:09.986Z,11.43
2019-03-27T21:39:42.052Z,15.13
2019-03-27T21:42:13.503Z,14.00
2019-03-27T21:44:44.850Z,14.40
2019-03-27T21:47:16.217Z,14.87
2019-03-27T21:49:47.575Z,17.73
2019-03-27T21:52:19.101Z,18.27
2019-03-27T21:54:50.478Z,16.20
2019-03-27T21:57:21.733Z,18.97
2019-03-27T21:59:52.987Z,19.20
2019-03-27T22:02:24.691Z,20.40
2019-03-27T22:04:55.943Z,22.73
2019-03-27T22:07:27.409Z,23.37
2019-03-27T22:09:58.555Z,27.90
2019-03-27T22:12:29.719Z,21.83
2019-03-27T22:15:00.995Z,24.47
2019-03-27T22:17:32.589Z,22.97
2019-03-27T22:20:04.026Z,21.93
2019-03-27T22:22:35.303Z,20.43
2019-03-27T22:25:07.740Z,23.23
2019-03-27T22:27:38.717Z,27.23
2019-03-27T22:30:10.307Z,26.77
2019-03-27T22:32:41.299Z,27.73
2019-03-27T22:35:13.522Z,24.27
2019-03-27T22:37:44.820Z,23.40
2019-03-27T22:40:16.268Z,25.40
2019-03-27T22:42:47.664Z,28.97
2019-03-27T22:45:18.594Z,27.80
2019-03-27T22:47:49.854Z,25.90
2019-03-27T22:50:21.130Z,26.77
2019-03-27T22:52:52.506Z,24.10
2019-03-27T22:55:23.802Z,26.70
2019-03-27T22:57:55.074Z,26.87
2019-03-27T23:00:35.585Z,23.40
2019-03-27T23:03:18.094Z,26.53
2019-03-27T23:05:41.404Z,24.53
2019-03-27T23:08:12.440Z,23.97
2019-03-27T23:10:43.958Z,25.43
2019-03-27T23:13:16.908Z,25.20
2019-03-27T23:15:48.993Z,26.67
2019-03-27T23:18:19.987Z,24.63
2019-03-27T23:20:51.111Z,29.60
2019-03-27T23:23:22.413Z,24.10
2019-03-27T23:26:03.014Z,26.20
2019-03-27T23:28:26.755Z,25.20
2019-03-27T23:30:58.255Z,26.07
2019-03-27T23:33:29.463Z,22.53
2019-03-27T23:36:00.811Z,27.80
2019-03-27T23:38:31.933Z,26.73
2019-03-27T23:41:03.303Z,24.60
2019-03-27T23:43:34.507Z,25.53
2019-03-27T23:46:05.907Z,26.17
2019-03-27T23:48:37.123Z,28.03
2019-03-27T23:51:08.199Z,24.40
2019-03-27T23:53:39.383Z,24.80
2019-03-27T23:56:16.404Z,25.77
2019-03-27T23:58:43.520Z,24.57
